sensor_id;sensor_type;location;lat;lon;timestamp;pressure;altitude;pressure_sealevel;temperature;humidity
8298;BME280;4187;42.778;23.242;2022-08-01T00:01:53;95204.94;;;17.44;100.00
8298;BME280;4187;42.778;23.242;2022-08-01T00:04:19;95205.84;;;17.36;100.00
8298;BME280;4187;42.778;23.242;2022-08-01T00:06:46;95214.88;;;17.35;100.00
8298;BME280;4187;42.778;23.242;2022-08-01T00:09:13;95200.88;;;17.33;100.00
8298;BME280;4187;42.778;23.242;2022-08-01T00:11:40;95203.00;;;17.38;100.00
8298;BME280;4187;42.778;23.242;2022-08-01T00:14:08;95217.44;;;17.43;100.00
8298;BME280;4187;42.778;23.242;2022-08-01T00:16:36;95200.13;;;17.39;100.00
8298;BME280;4187;42.778;23.242;2022-08-01T00:19:04;95213.38;;;17.47;100.00
8298;BME280;4187;42.778;23.242;2022-08-01T00:21:31;95196.94;;;17.44;100.00
8298;BME280;4187;42.778;23.242;2022-08-01T00:23:58;95205.00;;;17.50;100.00
8298;BME280;4187;42.778;23.242;2022-08-01T00:26:24;95208.97;;;17.54;100.00
8298;BME280;4187;42.778;23.242;2022-08-01T00:28:51;95186.06;;;17.45;100.00
8298;BME280;4187;42.778;23.242;2022-08-01T00:31:18;95177.41;;;17.43;100.00
8298;BME280;4187;42.778;23.242;2022-08-01T00:33:45;95197.91;;;17.57;100.00
8298;BME280;4187;42.778;23.242;2022-08-01T00:36:13;95194.94;;;17.52;100.00
8298;BME280;4187;42.778;23.242;2022-08-01T00:38:40;95199.03;;;17.48;100.00
8298;BME280;4187;42.778;23.242;2022-08-01T00:41:07;95168.31;;;17.16;100.00
8298;BME280;4187;42.778;23.242;2022-08-01T00:43:34;95189.34;;;17.11;100.00
8298;BME280;4187;42.778;23.242;2022-08-01T00:46:00;95189.19;;;17.13;100.00
8298;BME280;4187;42.778;23.242;2022-08-01T00:48:27;95183.22;;;16.96;100.00
8298;BME280;4187;42.778;23.242;2022-08-01T00:50:54;95179.09;;;16.94;100.00
8298;BME280;4187;42.778;23.242;2022-08-01T00:53:22;95179.00;;;17.02;100.00
8298;BME280;4187;42.778;23.242;2022-08-01T00:55:50;95184.22;;;17.10;100.00
8298;BME280;4187;42.778;23.242;2022-08-01T00:58:17;95131.59;;;16.68;100.00
8298;BME280;4187;42.778;23.242;2022-08-01T01:00:44;95183.06;;;16.83;100.00
8298;BME280;4187;42.778;23.242;2022-08-01T01:03:11;95182.03;;;16.55;100.00
8298;BME280;4187;42.778;23.242;2022-08-01T01:05:45;95179.25;;;16.19;100.00
8298;BME280;4187;42.778;23.242;2022-08-01T01:08:18;95141.59;;;15.70;100.00
8298;BME280;4187;42.778;23.242;2022-08-01T01:10:52;95175.34;;;15.70;100.00
8298;BME280;4187;42.778;23.242;2022-08-01T01:13:26;95175.50;;;15.68;100.00
8298;BME280;4187;42.778;23.242;2022-08-01T01:16:00;95138.34;;;15.37;100.00
8298;BME280;4187;42.778;23.242;2022-08-01T01:18:31;95177.31;;;15.53;100.00
8298;BME280;4187;42.778;23.242;2022-08-01T01:21:05;95170.19;;;15.45;100.00
8298;BME280;4187;42.778;23.242;2022-08-01T01:23:45;95144.22;;;15.25;100.00
8298;BME280;4187;42.778;23.242;2022-08-01T01:26:34;95149.25;;;15.42;100.00
8298;BME280;4187;42.778;23.242;2022-08-01T01:29:12;95113.06;;;15.19;100.00
8298;BME280;4187;42.778;23.242;2022-08-01T01:31:43;95023.03;;;14.70;100.00
8298;BME280;4187;42.778;23.242;2022-08-01T01:34:12;95157.63;;;15.62;100.00
8298;BME280;4187;42.778;23.242;2022-08-01T01:36:40;95138.88;;;15.55;100.00
8298;BME280;4187;42.778;23.242;2022-08-01T01:39:08;95151.06;;;15.73;100.00
8298;BME280;4187;42.778;23.242;2022-08-01T01:41:37;95162.47;;;15.81;100.00
8298;BME280;4187;42.778;23.242;2022-08-01T01:44:07;95156.13;;;15.82;100.00
8298;BME280;4187;42.778;23.242;2022-08-01T01:46:36;95150.00;;;15.96;100.00
8298;BME280;4187;42.778;23.242;2022-08-01T01:49:05;95145.06;;;16.08;100.00
8298;BME280;4187;42.778;23.242;2022-08-01T01:51:35;95153.16;;;16.14;100.00
8298;BME280;4187;42.778;23.242;2022-08-01T01:54:04;95133.88;;;16.12;100.00
8298;BME280;4187;42.778;23.242;2022-08-01T01:56:32;95118.09;;;16.11;100.00
8298;BME280;4187;42.778;23.242;2022-08-01T01:59:16;95146.09;;;16.36;100.00
8298;BME280;4187;42.778;23.242;2022-08-01T02:01:46;95096.78;;;16.11;100.00
8298;BME280;4187;42.778;23.242;2022-08-01T02:04:14;95107.25;;;16.12;100.00
8298;BME280;4187;42.778;23.242;2022-08-01T02:06:42;95150.59;;;16.36;100.00
8298;BME280;4187;42.778;23.242;2022-08-01T02:09:10;95111.03;;;16.18;100.00
8298;BME280;4187;42.778;23.242;2022-08-01T02:11:38;95148.59;;;16.38;100.00
8298;BME280;4187;42.778;23.242;2022-08-01T02:14:07;95101.38;;;16.02;100.00
8298;BME280;4187;42.778;23.242;2022-08-01T02:16:40;95154.00;;;16.30;100.00
8298;BME280;4187;42.778;23.242;2022-08-01T02:19:07;95146.91;;;16.22;100.00
8298;BME280;4187;42.778;23.242;2022-08-01T02:21:39;95150.25;;;16.24;100.00
8298;BME280;4187;42.778;23.242;2022-08-01T02:24:13;95149.75;;;16.21;100.00
8298;BME280;4187;42.778;23.242;2022-08-01T02:26:46;95159.84;;;16.25;100.00
8298;BME280;4187;42.778;23.242;2022-08-01T02:29:19;95156.84;;;16.28;100.00
8298;BME280;4187;42.778;23.242;2022-08-01T02:31:52;95121.66;;;16.18;100.00
8298;BME280;4187;42.778;23.242;2022-08-01T02:34:21;95150.16;;;16.32;100.00
8298;BME280;4187;42.778;23.242;2022-08-01T02:36:49;95149.22;;;16.25;100.00
8298;BME280;4187;42.778;23.242;2022-08-01T02:39:19;95148.75;;;16.22;100.00
8298;BME280;4187;42.778;23.242;2022-08-01T02:41:50;95152.44;;;16.21;100.00
8298;BME280;4187;42.778;23.242;2022-08-01T02:44:23;95145.00;;;16.16;100.00
8298;BME280;4187;42.778;23.242;2022-08-01T02:46:55;95149.97;;;16.19;100.00
8298;BME280;4187;42.778;23.242;2022-08-01T02:49:23;95148.75;;;16.07;100.00
8298;BME280;4187;42.778;23.242;2022-08-01T02:51:53;95152.13;;;16.01;100.00
8298;BME280;4187;42.778;23.242;2022-08-01T02:54:22;95144.00;;;15.80;100.00
8298;BME280;4187;42.778;23.242;2022-08-01T02:56:51;95113.94;;;15.57;100.00
8298;BME280;4187;42.778;23.242;2022-08-01T02:59:21;95144.06;;;15.72;100.00
8298;BME280;4187;42.778;23.242;2022-08-01T03:01:53;95143.72;;;15.75;100.00
8298;BME280;4187;42.778;23.242;2022-08-01T03:04:22;95125.81;;;15.69;100.00
8298;BME280;4187;42.778;23.242;2022-08-01T03:06:51;95160.53;;;15.90;100.00
8298;BME280;4187;42.778;23.242;2022-08-01T03:09:18;95153.22;;;15.92;100.00
8298;BME280;4187;42.778;23.242;2022-08-01T03:11:46;95146.88;;;15.93;100.00
8298;BME280;4187;42.778;23.242;2022-08-01T03:14:15;95140.44;;;15.87;100.00
8298;BME280;4187;42.778;23.242;2022-08-01T03:16:44;95097.03;;;15.49;100.00
8298;BME280;4187;42.778;23.242;2022-08-01T03:19:15;95154.28;;;15.83;100.00
8298;BME280;4187;42.778;23.242;2022-08-01T03:21:45;95153.28;;;15.84;100.00
8298;BME280;4187;42.778;23.242;2022-08-01T03:24:13;95128.47;;;15.69;100.00
8298;BME280;4187;42.778;23.242;2022-08-01T03:26:41;95148.88;;;15.91;100.00
8298;BME280;4187;42.778;23.242;2022-08-01T03:29:12;95146.88;;;15.93;100.00
8298;BME280;4187;42.778;23.242;2022-08-01T03:31:43;95140.16;;;15.82;100.00
8298;BME280;4187;42.778;23.242;2022-08-01T03:34:11;95093.22;;;15.44;100.00
8298;BME280;4187;42.778;23.242;2022-08-01T03:36:45;95143.59;;;15.68;100.00
8298;BME280;4187;42.778;23.242;2022-08-01T03:39:14;95147.34;;;15.59;100.00
8298;BME280;4187;42.778;23.242;2022-08-01T03:41:51;95123.09;;;15.31;100.00
8298;BME280;4187;42.778;23.242;2022-08-01T03:44:22;95155.47;;;15.35;100.00
8298;BME280;4187;42.778;23.242;2022-08-01T03:46:56;95153.25;;;15.38;100.00
8298;BME280;4187;42.778;23.242;2022-08-01T03:49:27;95153.06;;;15.17;100.00
8298;BME280;4187;42.778;23.242;2022-08-01T03:51:58;95150.38;;;15.03;100.00
8298;BME280;4187;42.778;23.242;2022-08-01T03:54:31;95154.53;;;14.97;100.00
8298;BME280;4187;42.778;23.242;2022-08-01T03:56:59;95150.16;;;15.04;100.00
8298;BME280;4187;42.778;23.242;2022-08-01T03:59:28;95146.28;;;15.15;100.00
8298;BME280;4187;42.778;23.242;2022-08-01T04:01:55;95132.66;;;15.18;100.00
8298;BME280;4187;42.778;23.242;2022-08-01T04:04:23;95152.47;;;15.38;100.00
8298;BME280;4187;42.778;23.242;2022-08-01T04:06:50;95156.38;;;15.50;100.00
8298;BME280;4187;42.778;23.242;2022-08-01T04:09:21;95165.78;;;15.61;100.00
8298;BME280;4187;42.778;23.242;2022-08-01T04:11:48;95163.69;;;15.71;100.00
8298;BME280;4187;42.778;23.242;2022-08-01T04:14:15;95164.16;;;15.74;100.00
8298;BME280;4187;42.778;23.242;2022-08-01T04:16:42;95169.63;;;15.81;100.00
8298;BME280;4187;42.778;23.242;2022-08-01T04:19:09;95166.69;;;15.90;100.00
8298;BME280;4187;42.778;23.242;2022-08-01T04:21:36;95168.28;;;15.99;100.00
8298;BME280;4187;42.778;23.242;2022-08-01T04:24:08;95153.50;;;16.11;100.00
8298;BME280;4187;42.778;23.242;2022-08-01T04:26:38;95152.97;;;16.16;100.00
8298;BME280;4187;42.778;23.242;2022-08-01T04:29:06;95151.16;;;16.17;100.00
8298;BME280;4187;42.778;23.242;2022-08-01T04:31:35;95144.16;;;16.15;100.00
8298;BME280;4187;42.778;23.242;2022-08-01T04:34:05;95171.47;;;16.32;100.00
8298;BME280;4187;42.778;23.242;2022-08-01T04:36:36;95142.13;;;16.17;100.00
8298;BME280;4187;42.778;23.242;2022-08-01T04:39:07;95167.84;;;16.25;100.00
8298;BME280;4187;42.778;23.242;2022-08-01T04:41:38;95173.44;;;16.30;100.00
8298;BME280;4187;42.778;23.242;2022-08-01T04:44:05;95170.25;;;16.35;100.00
8298;BME280;4187;42.778;23.242;2022-08-01T04:46:33;95178.25;;;16.35;100.00
8298;BME280;4187;42.778;23.242;2022-08-01T04:49:02;95166.03;;;16.40;100.00
8298;BME280;4187;42.778;23.242;2022-08-01T04:51:31;95130.94;;;16.37;100.00
8298;BME280;4187;42.778;23.242;2022-08-01T04:53:58;95152.63;;;16.63;100.00
8298;BME280;4187;42.778;23.242;2022-08-01T04:56:26;95159.81;;;16.77;100.00
8298;BME280;4187;42.778;23.242;2022-08-01T04:58:55;95158.78;;;16.93;100.00
8298;BME280;4187;42.778;23.242;2022-08-01T05:01:35;95170.69;;;17.11;100.00
8298;BME280;4187;42.778;23.242;2022-08-01T05:04:02;95169.56;;;17.20;100.00
8298;BME280;4187;42.778;23.242;2022-08-01T05:06:29;95165.22;;;17.34;100.00
8298;BME280;4187;42.778;23.242;2022-08-01T05:08:56;95172.34;;;17.48;100.00
8298;BME280;4187;42.778;23.242;2022-08-01T05:11:23;95168.16;;;17.60;100.00
8298;BME280;4187;42.778;23.242;2022-08-01T05:13:50;95161.50;;;17.71;100.00
8298;BME280;4187;42.778;23.242;2022-08-01T05:16:18;95138.03;;;17.60;100.00
8298;BME280;4187;42.778;23.242;2022-08-01T05:18:48;95145.34;;;17.79;100.00
8298;BME280;4187;42.778;23.242;2022-08-01T05:21:14;95167.47;;;17.94;100.00
8298;BME280;4187;42.778;23.242;2022-08-01T05:23:42;95158.09;;;18.05;100.00
8298;BME280;4187;42.778;23.242;2022-08-01T05:26:09;95172.03;;;18.28;100.00
8298;BME280;4187;42.778;23.242;2022-08-01T05:28:36;95163.50;;;18.39;100.00
8298;BME280;4187;42.778;23.242;2022-08-01T05:31:03;95173.34;;;18.60;100.00
8298;BME280;4187;42.778;23.242;2022-08-01T05:33:31;95180.22;;;18.75;100.00
8298;BME280;4187;42.778;23.242;2022-08-01T05:35:58;95176.38;;;18.91;100.00
8298;BME280;4187;42.778;23.242;2022-08-01T05:38:25;95169.81;;;18.93;100.00
8298;BME280;4187;42.778;23.242;2022-08-01T05:40:54;95122.84;;;18.84;100.00
8298;BME280;4187;42.778;23.242;2022-08-01T05:43:21;95163.31;;;19.16;100.00
8298;BME280;4187;42.778;23.242;2022-08-01T05:45:48;95189.19;;;19.49;100.00
8298;BME280;4187;42.778;23.242;2022-08-01T05:48:15;95190.44;;;19.60;100.00
8298;BME280;4187;42.778;23.242;2022-08-01T05:50:43;95197.91;;;19.78;100.00
8298;BME280;4187;42.778;23.242;2022-08-01T05:53:10;95192.81;;;19.89;100.00
8298;BME280;4187;42.778;23.242;2022-08-01T05:55:37;95203.31;;;20.04;100.00
8298;BME280;4187;42.778;23.242;2022-08-01T05:58:04;95195.69;;;20.20;100.00
8298;BME280;4187;42.778;23.242;2022-08-01T06:00:30;95181.28;;;20.28;100.00
8298;BME280;4187;42.778;23.242;2022-08-01T06:02:57;95186.84;;;20.53;100.00
8298;BME280;4187;42.778;23.242;2022-08-01T06:05:24;95189.13;;;20.62;100.00
8298;BME280;4187;42.778;23.242;2022-08-01T06:07:52;95199.00;;;20.75;99.70
8298;BME280;4187;42.778;23.242;2022-08-01T06:10:19;95198.16;;;20.81;96.43
8298;BME280;4187;42.778;23.242;2022-08-01T06:12:46;95172.56;;;20.85;98.61
8298;BME280;4187;42.778;23.242;2022-08-01T06:15:13;95203.06;;;21.10;96.86
8298;BME280;4187;42.778;23.242;2022-08-01T06:17:40;95180.56;;;21.11;94.48
8298;BME280;4187;42.778;23.242;2022-08-01T06:20:08;95187.94;;;21.22;94.89
8298;BME280;4187;42.778;23.242;2022-08-01T06:22:35;95199.91;;;21.26;94.04
8298;BME280;4187;42.778;23.242;2022-08-01T06:25:04;95191.19;;;21.37;92.74
8298;BME280;4187;42.778;23.242;2022-08-01T06:27:33;95191.38;;;21.49;91.98
8298;BME280;4187;42.778;23.242;2022-08-01T06:30:00;95186.34;;;21.59;90.06
8298;BME280;4187;42.778;23.242;2022-08-01T06:32:27;95188.72;;;21.74;87.97
8298;BME280;4187;42.778;23.242;2022-08-01T06:34:55;95181.66;;;21.86;86.83
8298;BME280;4187;42.778;23.242;2022-08-01T06:37:22;95184.09;;;21.94;83.84
8298;BME280;4187;42.778;23.242;2022-08-01T06:39:48;95185.03;;;22.06;85.64
8298;BME280;4187;42.778;23.242;2022-08-01T06:42:17;95172.78;;;22.17;85.54
8298;BME280;4187;42.778;23.242;2022-08-01T06:44:44;95168.75;;;22.26;86.59
8298;BME280;4187;42.778;23.242;2022-08-01T06:47:11;95142.44;;;22.34;83.86
8298;BME280;4187;42.778;23.242;2022-08-01T06:49:37;95165.25;;;22.50;81.25
8298;BME280;4187;42.778;23.242;2022-08-01T06:52:04;95159.03;;;22.49;81.20
8298;BME280;4187;42.778;23.242;2022-08-01T06:54:31;95161.91;;;22.54;80.77
8298;BME280;4187;42.778;23.242;2022-08-01T06:56:58;95162.47;;;22.63;81.68
8298;BME280;4187;42.778;23.242;2022-08-01T06:59:26;95151.50;;;22.65;80.41
8298;BME280;4187;42.778;23.242;2022-08-01T07:01:53;95133.31;;;22.60;82.84
8298;BME280;4187;42.778;23.242;2022-08-01T07:04:20;95135.22;;;22.78;81.35
8298;BME280;4187;42.778;23.242;2022-08-01T07:06:48;95129.16;;;22.82;80.54
8298;BME280;4187;42.778;23.242;2022-08-01T07:09:15;95138.97;;;22.95;79.80
8298;BME280;4187;42.778;23.242;2022-08-01T07:11:42;95137.59;;;23.04;78.52
8298;BME280;4187;42.778;23.242;2022-08-01T07:14:08;95132.66;;;23.01;79.57
8298;BME280;4187;42.778;23.242;2022-08-01T07:16:37;95144.25;;;23.19;79.16
8298;BME280;4187;42.778;23.242;2022-08-01T07:19:03;95144.47;;;23.18;81.68
8298;BME280;4187;42.778;23.242;2022-08-01T07:21:30;95142.00;;;23.35;81.60
8298;BME280;4187;42.778;23.242;2022-08-01T07:23:57;95146.97;;;23.38;79.10
8298;BME280;4187;42.778;23.242;2022-08-01T07:26:24;95145.38;;;23.48;79.99
8298;BME280;4187;42.778;23.242;2022-08-01T07:28:52;95135.78;;;23.52;78.01
8298;BME280;4187;42.778;23.242;2022-08-01T07:31:18;95079.88;;;23.18;77.65
8298;BME280;4187;42.778;23.242;2022-08-01T07:33:47;95141.81;;;23.66;78.98
8298;BME280;4187;42.778;23.242;2022-08-01T07:36:14;95120.75;;;23.74;80.68
8298;BME280;4187;42.778;23.242;2022-08-01T07:38:41;95151.06;;;24.00;78.36
8298;BME280;4187;42.778;23.242;2022-08-01T07:41:08;95139.06;;;24.14;76.05
8298;BME280;4187;42.778;23.242;2022-08-01T07:43:34;95156.66;;;24.16;73.37
8298;BME280;4187;42.778;23.242;2022-08-01T07:46:02;95149.72;;;24.20;74.21
8298;BME280;4187;42.778;23.242;2022-08-01T07:48:29;95123.13;;;24.24;74.30
8298;BME280;4187;42.778;23.242;2022-08-01T07:50:58;95143.09;;;24.46;72.78
8298;BME280;4187;42.778;23.242;2022-08-01T07:53:24;95127.47;;;24.48;71.49
8298;BME280;4187;42.778;23.242;2022-08-01T07:55:52;95157.06;;;24.55;69.30
8298;BME280;4187;42.778;23.242;2022-08-01T07:58:19;95151.53;;;24.61;71.14
8298;BME280;4187;42.778;23.242;2022-08-01T08:00:46;95147.19;;;24.72;71.24
8298;BME280;4187;42.778;23.242;2022-08-01T08:03:13;95145.41;;;24.77;69.11
8298;BME280;4187;42.778;23.242;2022-08-01T08:05:39;95148.38;;;24.87;69.97
8298;BME280;4187;42.778;23.242;2022-08-01T08:08:08;95149.09;;;24.94;70.87
8298;BME280;4187;42.778;23.242;2022-08-01T08:10:36;95141.00;;;24.94;68.43
8298;BME280;4187;42.778;23.242;2022-08-01T08:13:03;95145.56;;;24.94;70.09
8298;BME280;4187;42.778;23.242;2022-08-01T08:15:30;95148.16;;;25.01;67.75
8298;BME280;4187;42.778;23.242;2022-08-01T08:17:57;95152.09;;;25.10;68.08
8298;BME280;4187;42.778;23.242;2022-08-01T08:20:24;95153.25;;;25.25;68.88
8298;BME280;4187;42.778;23.242;2022-08-01T08:22:52;95147.38;;;25.28;67.35
8298;BME280;4187;42.778;23.242;2022-08-01T08:25:21;95137.28;;;25.35;68.89
8298;BME280;4187;42.778;23.242;2022-08-01T08:27:48;95131.16;;;25.28;66.75
8298;BME280;4187;42.778;23.242;2022-08-01T08:30:15;95119.78;;;25.26;66.66
8298;BME280;4187;42.778;23.242;2022-08-01T08:32:42;95136.44;;;25.46;67.36
8298;BME280;4187;42.778;23.242;2022-08-01T08:35:10;95118.09;;;25.37;65.53
8298;BME280;4187;42.778;23.242;2022-08-01T08:37:37;95135.91;;;25.61;66.08
8298;BME280;4187;42.778;23.242;2022-08-01T08:40:05;95140.44;;;25.72;62.98
8298;BME280;4187;42.778;23.242;2022-08-01T08:42:34;95135.22;;;25.82;61.76
8298;BME280;4187;42.778;23.242;2022-08-01T08:45:01;95135.47;;;25.81;62.39
8298;BME280;4187;42.778;23.242;2022-08-01T08:47:29;95145.28;;;25.70;61.77
8298;BME280;4187;42.778;23.242;2022-08-01T08:49:59;95134.38;;;25.65;61.19
8298;BME280;4187;42.778;23.242;2022-08-01T08:52:28;95132.34;;;25.72;63.15
8298;BME280;4187;42.778;23.242;2022-08-01T08:54:55;95141.88;;;25.91;66.32
8298;BME280;4187;42.778;23.242;2022-08-01T08:57:23;95135.56;;;26.14;64.45
8298;BME280;4187;42.778;23.242;2022-08-01T08:59:52;95139.50;;;26.23;60.33
8298;BME280;4187;42.778;23.242;2022-08-01T09:02:20;95124.41;;;26.27;61.03
8298;BME280;4187;42.778;23.242;2022-08-01T09:04:48;95134.09;;;26.40;62.72
8298;BME280;4187;42.778;23.242;2022-08-01T09:07:15;95115.91;;;26.35;60.95
8298;BME280;4187;42.778;23.242;2022-08-01T09:09:42;95117.22;;;26.33;61.90
8298;BME280;4187;42.778;23.242;2022-08-01T09:12:09;95108.75;;;26.29;60.02
8298;BME280;4187;42.778;23.242;2022-08-01T09:14:45;95116.81;;;26.41;60.09
8298;BME280;4187;42.778;23.242;2022-08-01T09:17:13;95124.44;;;26.44;60.82
8298;BME280;4187;42.778;23.242;2022-08-01T09:19:43;95113.50;;;26.39;58.51
8298;BME280;4187;42.778;23.242;2022-08-01T09:22:11;95107.44;;;26.32;59.66
8298;BME280;4187;42.778;23.242;2022-08-01T09:24:39;95108.28;;;26.49;57.79
8298;BME280;4187;42.778;23.242;2022-08-01T09:27:17;95111.69;;;26.44;60.77
8298;BME280;4187;42.778;23.242;2022-08-01T09:29:44;95107.03;;;26.56;60.25
8298;BME280;4187;42.778;23.242;2022-08-01T09:32:12;95115.69;;;26.75;58.26
8298;BME280;4187;42.778;23.242;2022-08-01T09:34:39;95113.09;;;26.80;59.58
8298;BME280;4187;42.778;23.242;2022-08-01T09:37:06;95108.31;;;26.87;57.96
8298;BME280;4187;42.778;23.242;2022-08-01T09:39:35;95103.47;;;26.89;58.54
8298;BME280;4187;42.778;23.242;2022-08-01T09:42:19;95110.16;;;27.03;56.84
8298;BME280;4187;42.778;23.242;2022-08-01T09:44:46;95110.97;;;27.04;56.40
8298;BME280;4187;42.778;23.242;2022-08-01T09:47:15;95115.38;;;27.10;58.09
8298;BME280;4187;42.778;23.242;2022-08-01T09:49:43;95108.78;;;27.22;58.51
8298;BME280;4187;42.778;23.242;2022-08-01T09:52:13;95114.94;;;26.96;59.03
8298;BME280;4187;42.778;23.242;2022-08-01T09:54:40;95081.34;;;26.59;61.77
8298;BME280;4187;42.778;23.242;2022-08-01T09:57:09;95056.72;;;26.22;63.58
8298;BME280;4187;42.778;23.242;2022-08-01T09:59:37;95086.78;;;26.26;62.42
8298;BME280;4187;42.778;23.242;2022-08-01T10:02:07;95102.66;;;26.39;63.03
8298;BME280;4187;42.778;23.242;2022-08-01T10:04:37;95102.47;;;26.12;61.61
8298;BME280;4187;42.778;23.242;2022-08-01T10:07:05;95099.13;;;26.05;63.70
8298;BME280;4187;42.778;23.242;2022-08-01T10:09:34;95101.94;;;26.27;62.58
8298;BME280;4187;42.778;23.242;2022-08-01T10:12:02;95094.81;;;26.54;61.65
8298;BME280;4187;42.778;23.242;2022-08-01T10:14:30;95100.09;;;26.82;61.66
8298;BME280;4187;42.778;23.242;2022-08-01T10:16:58;95101.34;;;27.13;61.50
8298;BME280;4187;42.778;23.242;2022-08-01T10:19:27;95101.72;;;27.21;58.20
8298;BME280;4187;42.778;23.242;2022-08-01T10:21:56;95096.63;;;27.03;62.80
8298;BME280;4187;42.778;23.242;2022-08-01T10:24:25;95093.97;;;27.08;59.99
8298;BME280;4187;42.778;23.242;2022-08-01T10:26:56;95086.03;;;27.23;61.83
8298;BME280;4187;42.778;23.242;2022-08-01T10:29:32;95082.06;;;27.31;62.67
8298;BME280;4187;42.778;23.242;2022-08-01T10:32:01;95096.88;;;27.45;63.23
8298;BME280;4187;42.778;23.242;2022-08-01T10:34:29;95095.06;;;27.51;61.69
8298;BME280;4187;42.778;23.242;2022-08-01T10:36:58;95089.78;;;27.66;61.18
8298;BME280;4187;42.778;23.242;2022-08-01T10:39:26;95039.91;;;27.40;58.61
8298;BME280;4187;42.778;23.242;2022-08-01T10:41:55;95052.91;;;27.65;59.49
8298;BME280;4187;42.778;23.242;2022-08-01T10:44:23;95061.69;;;27.77;60.19
8298;BME280;4187;42.778;23.242;2022-08-01T10:46:59;95085.69;;;27.90;60.18
8298;BME280;4187;42.778;23.242;2022-08-01T10:49:30;95096.06;;;27.98;61.41
8298;BME280;4187;42.778;23.242;2022-08-01T10:52:02;95080.97;;;28.02;58.09
8298;BME280;4187;42.778;23.242;2022-08-01T10:54:38;95072.09;;;27.85;58.52
8298;BME280;4187;42.778;23.242;2022-08-01T10:57:06;95091.22;;;28.00;58.68
8298;BME280;4187;42.778;23.242;2022-08-01T10:59:33;95071.38;;;27.95;55.92
8298;BME280;4187;42.778;23.242;2022-08-01T11:02:05;95076.44;;;27.86;59.98
8298;BME280;4187;42.778;23.242;2022-08-01T11:04:39;95087.66;;;27.95;57.02
8298;BME280;4187;42.778;23.242;2022-08-01T11:07:15;95074.75;;;27.80;57.17
8298;BME280;4187;42.778;23.242;2022-08-01T11:09:43;95065.16;;;27.67;60.41
8298;BME280;4187;42.778;23.242;2022-08-01T11:12:12;95070.75;;;27.87;60.26
8298;BME280;4187;42.778;23.242;2022-08-01T11:17:54;95060.94;;;28.08;60.88
8298;BME280;4187;42.778;23.242;2022-08-01T11:20:25;95067.59;;;28.22;58.04
8298;BME280;4187;42.778;23.242;2022-08-01T11:23:23;95048.94;;;28.36;60.27
8298;BME280;4187;42.778;23.242;2022-08-01T11:26:20;95064.00;;;28.54;58.13
8298;BME280;4187;42.778;23.242;2022-08-01T11:29:15;95052.00;;;28.44;53.73
8298;BME280;4187;42.778;23.242;2022-08-01T11:31:42;95066.28;;;28.30;56.23
8298;BME280;4187;42.778;23.242;2022-08-01T11:34:09;95052.31;;;28.11;56.63
8298;BME280;4187;42.778;23.242;2022-08-01T11:36:36;95053.50;;;27.99;58.68
8298;BME280;4187;42.778;23.242;2022-08-01T11:39:17;95049.97;;;27.98;57.40
8298;BME280;4187;42.778;23.242;2022-08-01T11:41:46;95043.84;;;28.08;57.99
8298;BME280;4187;42.778;23.242;2022-08-01T11:44:18;95046.44;;;28.24;61.16
8298;BME280;4187;42.778;23.242;2022-08-01T11:46:52;95049.56;;;28.48;58.51
8298;BME280;4187;42.778;23.242;2022-08-01T11:49:28;95043.75;;;28.71;57.21
8298;BME280;4187;42.778;23.242;2022-08-01T11:51:59;95062.19;;;28.64;55.86
8298;BME280;4187;42.778;23.242;2022-08-01T11:54:32;95057.09;;;28.73;56.60
8298;BME280;4187;42.778;23.242;2022-08-01T11:57:00;95051.66;;;28.73;56.13
8298;BME280;4187;42.778;23.242;2022-08-01T11:59:27;95056.97;;;28.58;55.42
8298;BME280;4187;42.778;23.242;2022-08-01T12:01:54;95054.72;;;28.49;55.29
8298;BME280;4187;42.778;23.242;2022-08-01T12:04:21;95038.06;;;28.36;55.71
8298;BME280;4187;42.778;23.242;2022-08-01T12:06:48;95050.06;;;28.40;55.67
8298;BME280;4187;42.778;23.242;2022-08-01T12:09:18;95022.25;;;28.23;57.00
8298;BME280;4187;42.778;23.242;2022-08-01T12:11:47;95039.47;;;28.38;56.43
8298;BME280;4187;42.778;23.242;2022-08-01T12:14:20;95002.88;;;28.09;57.90
8298;BME280;4187;42.778;23.242;2022-08-01T12:16:51;95036.72;;;28.33;57.48
8298;BME280;4187;42.778;23.242;2022-08-01T12:19:22;95036.72;;;28.33;56.76
8298;BME280;4187;42.778;23.242;2022-08-01T12:22:09;95035.09;;;28.32;58.34
8298;BME280;4187;42.778;23.242;2022-08-01T12:24:38;95023.94;;;28.29;56.81
8298;BME280;4187;42.778;23.242;2022-08-01T12:27:07;95033.13;;;28.28;56.80
8298;BME280;4187;42.778;23.242;2022-08-01T12:29:36;95017.56;;;28.13;59.76
8298;BME280;4187;42.778;23.242;2022-08-01T12:32:04;95037.31;;;28.40;56.27
8298;BME280;4187;42.778;23.242;2022-08-01T12:34:31;95034.94;;;28.49;60.59
8298;BME280;4187;42.778;23.242;2022-08-01T12:37:01;95042.13;;;28.65;58.14
8298;BME280;4187;42.778;23.242;2022-08-01T12:39:34;95031.88;;;28.82;58.55
8298;BME280;4187;42.778;23.242;2022-08-01T12:42:06;95024.66;;;29.03;56.76
8298;BME280;4187;42.778;23.242;2022-08-01T12:44:36;95041.53;;;29.15;56.32
8298;BME280;4187;42.778;23.242;2022-08-01T12:47:05;95033.41;;;29.20;59.19
8298;BME280;4187;42.778;23.242;2022-08-01T12:49:33;95024.53;;;29.35;55.52
8298;BME280;4187;42.778;23.242;2022-08-01T12:52:01;95000.31;;;29.33;57.28
8298;BME280;4187;42.778;23.242;2022-08-01T12:54:29;95029.22;;;29.64;55.58
8298;BME280;4187;42.778;23.242;2022-08-01T12:56:55;95030.56;;;29.52;54.04
8298;BME280;4187;42.778;23.242;2022-08-01T12:59:25;95021.81;;;29.45;55.54
8298;BME280;4187;42.778;23.242;2022-08-01T13:01:53;95026.94;;;29.31;55.66
8298;BME280;4187;42.778;23.242;2022-08-01T13:04:20;95024.22;;;29.21;54.13
8298;BME280;4187;42.778;23.242;2022-08-01T13:06:48;95006.69;;;28.92;55.47
8298;BME280;4187;42.778;23.242;2022-08-01T13:09:19;95022.19;;;28.96;59.19
8298;BME280;4187;42.778;23.242;2022-08-01T13:11:46;95014.31;;;29.00;55.92
8298;BME280;4187;42.778;23.242;2022-08-01T13:14:27;95012.69;;;28.99;55.49
8298;BME280;4187;42.778;23.242;2022-08-01T13:16:55;95018.13;;;29.04;55.39
8298;BME280;4187;42.778;23.242;2022-08-01T13:19:41;95008.75;;;28.75;54.97